Главная страница
METAR-TAF:

METAR-TAF

Аэропорты :

Уагадугу, Буркина-Фасо

широта: 12-21N, долгота: 001-31W, высота над уровнем моря: 316 м

Текущие метеонаблюдения

Эта сводка был подготовлена 2 часа и 21 минут назад, в 19:00 UTC
Штиль
Температура 30°C
Влажность 19%
Давление 1013 hPa
Видимость: 8000 м

METAR: DFFD 201900Z 00000KT 8000 NSC 30/04 Q1013 NOSIG

Время: 21:21 (21:21 UTC)

Прогноз

Эта сводка был подготовлена 4 часа и 21 минут назад, в 17:00 UTC
Прогноз действительный с 20-го 18 UTC до 21-го 24 UTC
Ветер 8 Узел от восточно-юго-восточный
Видимость 10 км и более
Нет облачности ниже 1500 м, и нет кучево-дождевой облачности
временами
С 20-го 18 UTC до 20-го 20 UTC
Видимость: 4000 м
мгла
временами
С 21-го 06 UTC до 21-го 10 UTC
Видимость: 3000 м
мгла

TAF: DFFD 201700Z 2018/2124 12008KT CAVOK TEMPO 2018/2020 4000 HZ TEMPO 2106/2110 3000 HZ

Метеонаблюдения и прогнозы для более 4000 аэропортов (сводки METAR и TAF).

Имеющиеся станции представлены на карте желтыми и красными точками.

Чтобы увидеть название станции, наведите на нее мышь.

Затем щелкните, чтобы увидеть метеонаблюдения и метеопрогнозы.

Управление картой: чтобы увеличить масштаб, щелкните зеленые кнопки с черным крестиком; чтобы уменьшить масштаб, щелкните зеленую кнопку с тире; для просмотра соседних карт щелкайте зеленые стрелки.


METAR-TAF: